sensor_id;sensor_type;location;lat;lon;timestamp;pressure;altitude;pressure_sealevel;temperature;humidity
73171;BME280;61381;50.118;19.962;2023-11-21T00:03:36;97583.09;;;8.08;100.00
73171;BME280;61381;50.118;19.962;2023-11-21T00:08:37;97578.38;;;8.18;100.00
73171;BME280;61381;50.118;19.962;2023-11-21T00:13:40;97587.50;;;8.31;100.00
73171;BME280;61381;50.118;19.962;2023-11-21T00:18:41;97595.59;;;8.26;100.00
73171;BME280;61381;50.118;19.962;2023-11-21T00:23:42;97599.78;;;8.32;100.00
73171;BME280;61381;50.118;19.962;2023-11-21T00:28:48;97604.34;;;8.32;100.00
73171;BME280;61381;50.118;19.962;2023-11-21T00:33:49;97599.88;;;8.27;100.00
73171;BME280;61381;50.118;19.962;2023-11-21T00:38:49;97599.78;;;8.32;100.00
73171;BME280;61381;50.118;19.962;2023-11-21T00:43:52;97592.84;;;8.31;100.00
73171;BME280;61381;50.118;19.962;2023-11-21T00:48:53;97602.53;;;8.27;100.00
73171;BME280;61381;50.118;19.962;2023-11-21T00:53:54;97597.06;;;8.18;100.00
73171;BME280;61381;50.118;19.962;2023-11-21T00:58:56;97592.44;;;8.24;100.00
73171;BME280;61381;50.118;19.962;2023-11-21T01:03:57;97607.59;;;8.29;100.00
73171;BME280;61381;50.118;19.962;2023-11-21T01:08:58;97606.84;;;8.23;100.00
73171;BME280;61381;50.118;19.962;2023-11-21T01:14:00;97596.38;;;8.27;100.00
73171;BME280;61381;50.118;19.962;2023-11-21T01:19:01;97590.69;;;8.33;100.00
73171;BME280;61381;50.118;19.962;2023-11-21T01:24:03;97597.25;;;8.41;100.00
73171;BME280;61381;50.118;19.962;2023-11-21T01:29:06;97596.69;;;8.44;100.00
73171;BME280;61381;50.118;19.962;2023-11-21T01:34:07;97593.22;;;8.44;100.00
73171;BME280;61381;50.118;19.962;2023-11-21T01:39:08;97598.75;;;8.28;100.00
73171;BME280;61381;50.118;19.962;2023-11-21T01:44:10;97604.03;;;8.33;100.00
73171;BME280;61381;50.118;19.962;2023-11-21T01:49:11;97607.50;;;8.34;100.00
73171;BME280;61381;50.118;19.962;2023-11-21T01:54:13;97604.03;;;8.33;100.00
73171;BME280;61381;50.118;19.962;2023-11-21T01:59:18;97609.88;;;8.35;100.00
73171;BME280;61381;50.118;19.962;2023-11-21T02:04:20;97604.13;;;8.47;100.00
73171;BME280;61381;50.118;19.962;2023-11-21T02:09:25;97603.06;;;8.43;100.00
73171;BME280;61381;50.118;19.962;2023-11-21T02:14:27;97609.88;;;8.35;100.00
73171;BME280;61381;50.118;19.962;2023-11-21T02:19:28;97615.41;;;8.39;100.00
73171;BME280;61381;50.118;19.962;2023-11-21T02:24:30;97616.72;;;8.42;100.00
73171;BME280;61381;50.118;19.962;2023-11-21T02:29:31;97610.13;;;8.53;100.00
73171;BME280;61381;50.118;19.962;2023-11-21T02:34:32;97609.56;;;8.37;100.00
73171;BME280;61381;50.118;19.962;2023-11-21T02:39:35;97603.53;;;8.50;100.00
73171;BME280;61381;50.118;19.962;2023-11-21T02:44:36;97608.56;;;8.33;100.00
73171;BME280;61381;50.118;19.962;2023-11-21T02:49:37;97613.63;;;8.34;100.00
73171;BME280;61381;50.118;19.962;2023-11-21T02:54:39;97610.09;;;8.20;100.00
73171;BME280;61381;50.118;19.962;2023-11-21T02:59:40;97612.28;;;8.18;100.00
73171;BME280;61381;50.118;19.962;2023-11-21T03:04:41;97606.59;;;8.06;100.00
73171;BME280;61381;50.118;19.962;2023-11-21T03:09:43;97616.25;;;8.01;100.00
73171;BME280;61381;50.118;19.962;2023-11-21T03:14:44;97624.16;;;8.07;100.00
73171;BME280;61381;50.118;19.962;2023-11-21T03:19:45;97625.13;;;7.97;100.00
73171;BME280;61381;50.118;19.962;2023-11-21T03:24:47;97616.25;;;8.01;100.00
73171;BME280;61381;50.118;19.962;2023-11-21T03:29:48;97622.16;;;7.98;100.00
73171;BME280;61381;50.118;19.962;2023-11-21T03:34:56;97627.63;;;7.88;100.00
73171;BME280;61381;50.118;19.962;2023-11-21T03:39:59;97638.16;;;7.98;100.00
73171;BME280;61381;50.118;19.962;2023-11-21T03:45:00;97633.75;;;7.89;100.00
73171;BME280;61381;50.118;19.962;2023-11-21T03:50:01;97634.75;;;7.93;100.00
73171;BME280;61381;50.118;19.962;2023-11-21T03:55:03;97635.34;;;7.90;100.00
73171;BME280;61381;50.118;19.962;2023-11-21T04:00:06;97636.84;;;7.96;100.00
73171;BME280;61381;50.118;19.962;2023-11-21T04:05:07;97642.84;;;7.88;100.00
73171;BME280;61381;50.118;19.962;2023-11-21T04:10:09;97647.94;;;7.84;100.00
73171;BME280;61381;50.118;19.962;2023-11-21T04:15:11;97638.38;;;7.83;100.00
73171;BME280;61381;50.118;19.962;2023-11-21T04:20:12;97646.38;;;7.83;100.00
73171;BME280;61381;50.118;19.962;2023-11-21T04:25:15;97647.34;;;7.68;100.00
73171;BME280;61381;50.118;19.962;2023-11-21T04:30:16;97647.84;;;7.70;100.00
73171;BME280;61381;50.118;19.962;2023-11-21T04:35:17;97638.56;;;7.67;100.00
73171;BME280;61381;50.118;19.962;2023-11-21T04:40:19;97645.47;;;7.68;100.00
73171;BME280;61381;50.118;19.962;2023-11-21T04:45:20;97653.44;;;7.74;100.00
73171;BME280;61381;50.118;19.962;2023-11-21T04:50:21;97656.94;;;7.69;100.00
73171;BME280;61381;50.118;19.962;2023-11-21T04:55:24;97665.16;;;7.73;100.00
73171;BME280;61381;50.118;19.962;2023-11-21T05:00:25;97668.31;;;7.75;100.00
73171;BME280;61381;50.118;19.962;2023-11-21T05:05:26;97667.81;;;7.73;100.00
73171;BME280;61381;50.118;19.962;2023-11-21T05:10:28;97663.91;;;7.65;100.00
73171;BME280;61381;50.118;19.962;2023-11-21T05:15:29;97679.06;;;7.70;100.00
73171;BME280;61381;50.118;19.962;2023-11-21T05:20:30;97674.88;;;7.63;100.00
73171;BME280;61381;50.118;19.962;2023-11-21T05:25:33;97680.13;;;7.68;100.00
73171;BME280;61381;50.118;19.962;2023-11-21T05:30:34;97683.22;;;7.57;100.00
73171;BME280;61381;50.118;19.962;2023-11-21T05:35:35;97699.72;;;7.59;100.00
73171;BME280;61381;50.118;19.962;2023-11-21T05:40:37;97700.16;;;7.66;100.00
73171;BME280;61381;50.118;19.962;2023-11-21T05:45:38;97702.88;;;7.61;100.00
73171;BME280;61381;50.118;19.962;2023-11-21T05:50:39;97704.53;;;7.57;100.00
73171;BME280;61381;50.118;19.962;2023-11-21T05:55:42;97709.97;;;7.71;100.00
73171;BME280;61381;50.118;19.962;2023-11-21T06:00:43;97722.38;;;7.56;100.00
73171;BME280;61381;50.118;19.962;2023-11-21T06:05:43;97729.13;;;7.73;100.00
73171;BME280;61381;50.118;19.962;2023-11-21T06:10:46;97733.16;;;7.70;100.00
73171;BME280;61381;50.118;19.962;2023-11-21T06:15:47;97745.06;;;7.78;100.00
73171;BME280;61381;50.118;19.962;2023-11-21T06:20:48;97748.66;;;7.68;100.00
73171;BME280;61381;50.118;19.962;2023-11-21T06:25:51;97743.53;;;7.72;100.00
73171;BME280;61381;50.118;19.962;2023-11-21T06:30:51;97750.28;;;7.64;100.00
73171;BME280;61381;50.118;19.962;2023-11-21T06:35:52;97744.84;;;7.74;100.00
73171;BME280;61381;50.118;19.962;2023-11-21T06:40:55;97752.00;;;7.79;100.00
73171;BME280;61381;50.118;19.962;2023-11-21T06:45:56;97758.28;;;7.88;100.00
73171;BME280;61381;50.118;19.962;2023-11-21T06:50:57;97762.84;;;7.88;100.00
73171;BME280;61381;50.118;19.962;2023-11-21T06:55:59;97754.84;;;7.88;100.00
73171;BME280;61381;50.118;19.962;2023-11-21T07:01:00;97772.69;;;8.11;100.00
73171;BME280;61381;50.118;19.962;2023-11-21T07:06:01;97774.34;;;8.07;100.00
73171;BME280;61381;50.118;19.962;2023-11-21T07:11:04;97782.47;;;7.97;100.00
73171;BME280;61381;50.118;19.962;2023-11-21T07:16:05;97781.81;;;8.05;100.00
73171;BME280;61381;50.118;19.962;2023-11-21T07:21:06;97784.66;;;8.14;100.00
73171;BME280;61381;50.118;19.962;2023-11-21T07:26:09;97792.66;;;8.14;100.00
73171;BME280;61381;50.118;19.962;2023-11-21T07:31:10;97790.97;;;8.23;100.00
73171;BME280;61381;50.118;19.962;2023-11-21T07:36:11;97794.78;;;8.17;100.00
73171;BME280;61381;50.118;19.962;2023-11-21T07:41:13;97796.94;;;8.15;100.00
73171;BME280;61381;50.118;19.962;2023-11-21T07:46:14;97797.25;;;8.08;100.00
73171;BME280;61381;50.118;19.962;2023-11-21T07:51:16;97802.28;;;8.15;100.00
73171;BME280;61381;50.118;19.962;2023-11-21T07:56:18;97801.47;;;8.14;100.00
73171;BME280;61381;50.118;19.962;2023-11-21T08:01:19;97797.72;;;7.91;100.00
73171;BME280;61381;50.118;19.962;2023-11-21T08:06:20;97800.19;;;7.88;100.00
73171;BME280;61381;50.118;19.962;2023-11-21T08:11:22;97800.41;;;7.91;100.00
73171;BME280;61381;50.118;19.962;2023-11-21T08:16:23;97810.03;;;8.11;100.00
73171;BME280;61381;50.118;19.962;2023-11-21T08:21:24;97820.19;;;8.09;100.00
73171;BME280;61381;50.118;19.962;2023-11-21T08:26:26;97815.63;;;8.15;100.00
73171;BME280;61381;50.118;19.962;2023-11-21T08:31:28;97820.47;;;8.32;100.00
73171;BME280;61381;50.118;19.962;2023-11-21T08:36:29;97812.69;;;8.35;100.00
73171;BME280;61381;50.118;19.962;2023-11-21T08:41:31;97822.84;;;8.57;100.00
73171;BME280;61381;50.118;19.962;2023-11-21T08:46:32;97820.69;;;8.35;100.00
73171;BME280;61381;50.118;19.962;2023-11-21T08:51:33;97829.28;;;8.56;100.00
73171;BME280;61381;50.118;19.962;2023-11-21T08:56:35;97825.16;;;8.40;100.00
73171;BME280;61381;50.118;19.962;2023-11-21T09:01:36;97840.81;;;8.52;100.00
73171;BME280;61381;50.118;19.962;2023-11-21T09:06:37;97831.06;;;8.37;100.00
73171;BME280;61381;50.118;19.962;2023-11-21T09:11:39;97828.69;;;8.35;100.00
73171;BME280;61381;50.118;19.962;2023-11-21T09:16:40;97836.75;;;8.54;100.00
73171;BME280;61381;50.118;19.962;2023-11-21T09:21:41;97830.00;;;8.38;100.00
73171;BME280;61381;50.118;19.962;2023-11-21T09:26:43;97826.53;;;8.37;100.00
73171;BME280;61381;50.118;19.962;2023-11-21T09:31:44;97825.25;;;8.59;100.00
73171;BME280;61381;50.118;19.962;2023-11-21T09:36:45;97830.88;;;8.77;100.00
73171;BME280;61381;50.118;19.962;2023-11-21T09:41:51;97828.91;;;9.01;100.00
73171;BME280;61381;50.118;19.962;2023-11-21T09:46:53;97836.34;;;9.04;100.00
73171;BME280;61381;50.118;19.962;2023-11-21T09:51:55;97837.94;;;9.05;100.00
73171;BME280;61381;50.118;19.962;2023-11-21T09:56:57;97847.19;;;8.75;100.00
73171;BME280;61381;50.118;19.962;2023-11-21T10:01:58;97842.19;;;8.87;100.00
73171;BME280;61381;50.118;19.962;2023-11-21T10:06:59;97837.06;;;8.91;100.00
73171;BME280;61381;50.118;19.962;2023-11-21T10:12:03;97847.97;;;9.14;100.00
73171;BME280;61381;50.118;19.962;2023-11-21T10:17:04;97847.69;;;9.48;100.00
73171;BME280;61381;50.118;19.962;2023-11-21T10:22:05;97850.28;;;9.53;100.00
73171;BME280;61381;50.118;19.962;2023-11-21T10:27:08;97857.19;;;9.40;100.00
73171;BME280;61381;50.118;19.962;2023-11-21T10:32:09;97848.03;;;9.60;100.00
73171;BME280;61381;50.118;19.962;2023-11-21T10:37:11;97848.81;;;9.61;100.00
73171;BME280;61381;50.118;19.962;2023-11-21T10:42:13;97852.53;;;9.46;100.00
73171;BME280;61381;50.118;19.962;2023-11-21T10:47:16;97848.63;;;9.38;100.00
73171;BME280;61381;50.118;19.962;2023-11-21T10:52:19;97845.28;;;9.33;100.00
73171;BME280;61381;50.118;19.962;2023-11-21T10:57:22;97847.44;;;9.63;100.00
73171;BME280;61381;50.118;19.962;2023-11-21T11:02:24;97849.59;;;9.28;100.00
73171;BME280;61381;50.118;19.962;2023-11-21T11:07:26;97852.44;;;9.18;100.00
73171;BME280;61381;50.118;19.962;2023-11-21T11:12:29;97841.09;;;9.07;100.00
73171;BME280;61381;50.118;19.962;2023-11-21T11:17:30;97846.59;;;8.78;100.00
73171;BME280;61381;50.118;19.962;2023-11-21T11:22:37;97839.97;;;8.95;100.00
73171;BME280;61381;50.118;19.962;2023-11-21T11:27:50;97847.38;;;8.79;100.00
73171;BME280;61381;50.118;19.962;2023-11-21T11:32:58;97851.78;;;8.69;100.00
73171;BME280;61381;50.118;19.962;2023-11-21T11:38:04;97851.22;;;8.72;100.00
73171;BME280;61381;50.118;19.962;2023-11-21T11:43:07;97852.38;;;9.04;100.00
73171;BME280;61381;50.118;19.962;2023-11-21T11:48:11;97858.44;;;8.91;100.00
73171;BME280;61381;50.118;19.962;2023-11-21T11:53:13;97869.84;;;8.97;100.00
73171;BME280;61381;50.118;19.962;2023-11-21T11:58:15;97866.66;;;9.14;100.00
73171;BME280;61381;50.118;19.962;2023-11-21T12:03:16;97877.25;;;9.19;100.00
73171;BME280;61381;50.118;19.962;2023-11-21T12:08:17;97878.28;;;9.23;100.00
73171;BME280;61381;50.118;19.962;2023-11-21T12:13:20;97872.94;;;9.23;100.00
73171;BME280;61381;50.118;19.962;2023-11-21T12:18:21;97876.63;;;9.08;100.00
73171;BME280;61381;50.118;19.962;2023-11-21T12:23:22;97869.91;;;9.10;100.00
73171;BME280;61381;50.118;19.962;2023-11-21T12:28:24;97869.13;;;8.91;100.00
73171;BME280;61381;50.118;19.962;2023-11-21T12:33:25;97876.63;;;9.08;100.00
73171;BME280;61381;50.118;19.962;2023-11-21T12:38:33;97873.06;;;9.13;100.00
73171;BME280;61381;50.118;19.962;2023-11-21T12:43:36;97868.03;;;8.92;100.00
73171;BME280;61381;50.118;19.962;2023-11-21T12:48:37;97874.31;;;9.01;100.00
73171;BME280;61381;50.118;19.962;2023-11-21T12:53:38;97873.47;;;8.87;100.00
73171;BME280;61381;50.118;19.962;2023-11-21T12:58:44;97877.69;;;8.88;100.00
73171;BME280;61381;50.118;19.962;2023-11-21T13:03:47;97875.53;;;8.71;100.00
73171;BME280;61381;50.118;19.962;2023-11-21T13:08:48;97873.22;;;8.83;100.00
73171;BME280;61381;50.118;19.962;2023-11-21T13:13:51;97881.53;;;8.82;100.00
73171;BME280;61381;50.118;19.962;2023-11-21T13:18:52;97888.47;;;8.83;100.00
73171;BME280;61381;50.118;19.962;2023-11-21T13:23:53;97885.50;;;8.84;100.00
73171;BME280;61381;50.118;19.962;2023-11-21T13:28:55;97896.78;;;9.00;100.00
73171;BME280;61381;50.118;19.962;2023-11-21T13:33:56;97896.28;;;8.98;100.00
73171;BME280;61381;50.118;19.962;2023-11-21T13:38:57;97896.78;;;9.19;100.00
73171;BME280;61381;50.118;19.962;2023-11-21T13:44:00;97902.00;;;9.30;100.00
73171;BME280;61381;50.118;19.962;2023-11-21T13:49:01;97908.84;;;9.17;100.00
73171;BME280;61381;50.118;19.962;2023-11-21T13:54:02;97907.25;;;9.16;100.00
73171;BME280;61381;50.118;19.962;2023-11-21T13:59:04;97908.63;;;9.13;100.00
73171;BME280;61381;50.118;19.962;2023-11-21T14:04:05;97909.13;;;9.34;100.00
73171;BME280;61381;50.118;19.962;2023-11-21T14:09:06;97912.75;;;9.43;100.00
73171;BME280;61381;50.118;19.962;2023-11-21T14:14:09;97914.69;;;9.38;100.00
73171;BME280;61381;50.118;19.962;2023-11-21T14:19:10;97917.06;;;8.82;100.00
73171;BME280;61381;50.118;19.962;2023-11-21T14:24:11;97920.41;;;8.69;100.00
73171;BME280;61381;50.118;19.962;2023-11-21T14:29:14;97921.78;;;8.66;100.00
73171;BME280;61381;50.118;19.962;2023-11-21T14:34:15;97919.06;;;8.47;100.00
73171;BME280;61381;50.118;19.962;2023-11-21T14:39:16;97928.75;;;8.38;100.00
73171;BME280;61381;50.118;19.962;2023-11-21T14:44:19;97929.75;;;8.42;100.00
73171;BME280;61381;50.118;19.962;2023-11-21T14:49:20;97934.97;;;8.28;100.00
73171;BME280;61381;50.118;19.962;2023-11-21T14:54:21;97939.94;;;8.40;100.00
73171;BME280;61381;50.118;19.962;2023-11-21T14:59:23;97943.72;;;8.34;100.00
73171;BME280;61381;50.118;19.962;2023-11-21T15:04:24;97945.53;;;8.44;100.00
73171;BME280;61381;50.118;19.962;2023-11-21T15:09:25;97950.81;;;8.49;100.00
73171;BME280;61381;50.118;19.962;2023-11-21T15:14:28;97956.84;;;8.60;100.00
73171;BME280;61381;50.118;19.962;2023-11-21T15:19:29;97956.28;;;8.63;100.00
73171;BME280;61381;50.118;19.962;2023-11-21T15:24:30;97969.72;;;8.52;100.00
73171;BME280;61381;50.118;19.962;2023-11-21T15:29:32;97979.91;;;8.50;100.00
73171;BME280;61381;50.118;19.962;2023-11-21T15:34:33;97985.56;;;8.44;100.00
73171;BME280;61381;50.118;19.962;2023-11-21T15:39:34;97976.69;;;8.48;100.00
73171;BME280;61381;50.118;19.962;2023-11-21T15:44:36;97981.72;;;8.55;100.00
73171;BME280;61381;50.118;19.962;2023-11-21T15:49:37;97977.66;;;8.33;100.00
73171;BME280;61381;50.118;19.962;2023-11-21T15:54:38;97987.69;;;8.42;100.00
73171;BME280;61381;50.118;19.962;2023-11-21T15:59:41;97989.03;;;8.39;100.00
73171;BME280;61381;50.118;19.962;2023-11-21T16:04:42;97993.38;;;8.35;100.00
73171;BME280;61381;50.118;19.962;2023-11-21T16:09:43;97996.59;;;8.32;100.00
73171;BME280;61381;50.118;19.962;2023-11-21T16:14:45;97999.34;;;8.21;100.00
73171;BME280;61381;50.118;19.962;2023-11-21T16:20:24;97999.72;;;8.10;100.00
73171;BME280;61381;50.118;19.962;2023-11-21T16:25:31;98003.44;;;8.14;100.00
73171;BME280;61381;50.118;19.962;2023-11-21T16:30:33;98005.03;;;8.15;100.00
73171;BME280;61381;50.118;19.962;2023-11-21T16:35:34;98004.47;;;8.18;100.00
73171;BME280;61381;50.118;19.962;2023-11-21T16:40:35;98009.25;;;8.21;100.00
73171;BME280;61381;50.118;19.962;2023-11-21T16:45:38;98018.38;;;8.15;100.00
73171;BME280;61381;50.118;19.962;2023-11-21T16:50:42;98017.75;;;8.23;100.00
73171;BME280;61381;50.118;19.962;2023-11-21T16:55:43;98028.75;;;8.16;100.00
73171;BME280;61381;50.118;19.962;2023-11-21T17:00:46;98036.50;;;8.13;100.00
73171;BME280;61381;50.118;19.962;2023-11-21T17:05:47;98041.66;;;8.04;100.00
73171;BME280;61381;50.118;19.962;2023-11-21T17:10:48;98051.78;;;8.02;100.00
73171;BME280;61381;50.118;19.962;2023-11-21T17:15:50;98054.75;;;8.00;100.00
73171;BME280;61381;50.118;19.962;2023-11-21T17:20:51;98061.34;;;8.13;100.00
73171;BME280;61381;50.118;19.962;2023-11-21T17:25:52;98055.78;;;8.04;100.00
73171;BME280;61381;50.118;19.962;2023-11-21T17:30:55;98067.78;;;7.67;100.00
73171;BME280;61381;50.118;19.962;2023-11-21T17:35:56;98064.28;;;7.67;100.00
73171;BME280;61381;50.118;19.962;2023-11-21T17:40:59;98074.94;;;7.17;100.00
73171;BME280;61381;50.118;19.962;2023-11-21T17:46:09;98089.94;;;6.77;100.00
73171;BME280;61381;50.118;19.962;2023-11-21T17:51:10;98085.44;;;6.26;100.00
73171;BME280;61381;50.118;19.962;2023-11-21T17:56:15;98089.06;;;5.79;100.00
73171;BME280;61381;50.118;19.962;2023-11-21T18:01:18;98099.13;;;5.56;100.00
73171;BME280;61381;50.118;19.962;2023-11-21T18:06:19;98095.13;;;5.48;100.00
73171;BME280;61381;50.118;19.962;2023-11-21T18:11:20;98111.53;;;5.30;100.00
73171;BME280;61381;50.118;19.962;2023-11-21T18:16:22;98120.38;;;4.98;100.00
73171;BME280;61381;50.118;19.962;2023-11-21T18:21:23;98117.59;;;4.77;100.00
73171;BME280;61381;50.118;19.962;2023-11-21T18:26:24;98110.72;;;4.44;100.00
73171;BME280;61381;50.118;19.962;2023-11-21T18:31:26;98126.50;;;4.28;100.00
73171;BME280;61381;50.118;19.962;2023-11-21T18:36:27;98128.84;;;4.25;100.00
73171;BME280;61381;50.118;19.962;2023-11-21T18:41:28;98127.69;;;4.10;100.00
73171;BME280;61381;50.118;19.962;2023-11-21T18:46:35;98142.94;;;3.98;100.00
73171;BME280;61381;50.118;19.962;2023-11-21T18:51:36;98139.69;;;3.91;100.00
73171;BME280;61381;50.118;19.962;2023-11-21T18:56:37;98154.75;;;3.90;100.00
73171;BME280;61381;50.118;19.962;2023-11-21T19:01:39;98156.69;;;3.73;100.00
73171;BME280;61381;50.118;19.962;2023-11-21T19:06:40;98163.09;;;3.55;100.00
73171;BME280;61381;50.118;19.962;2023-11-21T19:11:41;98174.44;;;3.50;100.00
73171;BME280;61381;50.118;19.962;2023-11-21T19:16:44;98183.84;;;3.41;100.00
73171;BME280;61381;50.118;19.962;2023-11-21T19:21:45;98196.56;;;3.22;100.00
73171;BME280;61381;50.118;19.962;2023-11-21T19:26:46;98200.91;;;3.28;100.00
73171;BME280;61381;50.118;19.962;2023-11-21T19:31:48;98210.38;;;2.90;100.00
73171;BME280;61381;50.118;19.962;2023-11-21T19:36:49;98215.91;;;2.89;100.00
73171;BME280;61381;50.118;19.962;2023-11-21T19:41:50;98225.13;;;3.03;100.00
73171;BME280;61381;50.118;19.962;2023-11-21T19:46:53;98241.00;;;2.86;100.00
73171;BME280;61381;50.118;19.962;2023-11-21T19:51:54;98252.41;;;2.87;100.00
73171;BME280;61381;50.118;19.962;2023-11-21T19:56:55;98261.69;;;2.89;100.00
73171;BME280;61381;50.118;19.962;2023-11-21T20:01:59;98262.34;;;2.96;100.00
73171;BME280;61381;50.118;19.962;2023-11-21T20:07:00;98278.69;;;2.76;100.00
73171;BME280;61381;50.118;19.962;2023-11-21T20:12:01;98291.59;;;2.73;100.00
73171;BME280;61381;50.118;19.962;2023-11-21T20:17:03;98293.38;;;2.55;100.00
73171;BME280;61381;50.118;19.962;2023-11-21T20:22:04;98303.00;;;2.32;100.00
73171;BME280;61381;50.118;19.962;2023-11-21T20:27:05;98310.13;;;2.32;100.00
73171;BME280;61381;50.118;19.962;2023-11-21T20:32:07;98319.91;;;2.31;100.00
73171;BME280;61381;50.118;19.962;2023-11-21T20:37:08;98329.78;;;2.36;100.00
73171;BME280;61381;50.118;19.962;2023-11-21T20:42:09;98333.78;;;2.39;100.00
73171;BME280;61381;50.118;19.962;2023-11-21T20:47:12;98329.63;;;2.43;100.00
73171;BME280;61381;50.118;19.962;2023-11-21T20:52:13;98341.16;;;2.25;100.00
73171;BME280;61381;50.118;19.962;2023-11-21T20:57:14;98346.34;;;2.31;100.00
73171;BME280;61381;50.118;19.962;2023-11-21T21:02:16;98349.13;;;2.13;100.00
73171;BME280;61381;50.118;19.962;2023-11-21T21:07:17;98349.84;;;2.08;100.00
73171;BME280;61381;50.118;19.962;2023-11-21T21:12:18;98353.50;;;2.07;100.00
73171;BME280;61381;50.118;19.962;2023-11-21T21:17:21;98369.66;;;2.23;100.00
73171;BME280;61381;50.118;19.962;2023-11-21T21:22:22;98371.31;;;2.00;100.00
73171;BME280;61381;50.118;19.962;2023-11-21T21:27:22;98378.41;;;2.23;100.00
73171;BME280;61381;50.118;19.962;2023-11-21T21:32:25;98386.13;;;2.13;100.00
73171;BME280;61381;50.118;19.962;2023-11-21T21:37:26;98394.97;;;1.95;100.00
73171;BME280;61381;50.118;19.962;2023-11-21T21:42:27;98403.09;;;1.70;100.00
73171;BME280;61381;50.118;19.962;2023-11-21T21:47:29;98409.13;;;2.01;100.00
73171;BME280;61381;50.118;19.962;2023-11-21T21:52:34;98421.13;;;2.20;100.00
73171;BME280;61381;50.118;19.962;2023-11-21T21:57:35;98431.94;;;2.19;100.00
73171;BME280;61381;50.118;19.962;2023-11-21T22:02:37;98440.22;;;2.22;100.00
73171;BME280;61381;50.118;19.962;2023-11-21T22:07:39;98455.63;;;2.25;100.00
73171;BME280;61381;50.118;19.962;2023-11-21T22:12:40;98459.72;;;1.74;100.00
73171;BME280;61381;50.118;19.962;2023-11-21T22:17:43;98472.19;;;1.55;100.00
73171;BME280;61381;50.118;19.962;2023-11-21T22:22:43;98475.38;;;1.45;100.00
73171;BME280;61381;50.118;19.962;2023-11-21T22:27:44;98484.50;;;1.31;100.00
73171;BME280;61381;50.118;19.962;2023-11-21T22:32:47;98487.78;;;1.14;100.00
73171;BME280;61381;50.118;19.962;2023-11-21T22:37:48;98500.59;;;1.11;100.00
73171;BME280;61381;50.118;19.962;2023-11-21T22:42:49;98512.06;;;1.04;100.00
73171;BME280;61381;50.118;19.962;2023-11-21T22:47:51;98528.09;;;1.03;100.00
73171;BME280;61381;50.118;19.962;2023-11-21T22:52:52;98537.03;;;1.02;100.00
73171;BME280;61381;50.118;19.962;2023-11-21T22:57:53;98534.31;;;0.90;100.00
73171;BME280;61381;50.118;19.962;2023-11-21T23:02:56;98547.22;;;0.80;100.00
73171;BME280;61381;50.118;19.962;2023-11-21T23:07:58;98553.22;;;0.87;100.00
73171;BME280;61381;50.118;19.962;2023-11-21T23:12:59;98558.03;;;0.71;100.00
73171;BME280;61381;50.118;19.962;2023-11-21T23:18:01;98555.13;;;0.80;100.00
73171;BME280;61381;50.118;19.962;2023-11-21T23:23:02;98584.78;;;0.75;100.00
73171;BME280;61381;50.118;19.962;2023-11-21T23:28:04;98569.19;;;0.92;100.00
73171;BME280;61381;50.118;19.962;2023-11-21T23:33:06;98572.09;;;0.84;100.00
73171;BME280;61381;50.118;19.962;2023-11-21T23:38:07;98580.97;;;0.71;100.00
73171;BME280;61381;50.118;19.962;2023-11-21T23:43:08;98587.03;;;0.71;100.00
73171;BME280;61381;50.118;19.962;2023-11-21T23:48:11;98579.41;;;0.63;100.00
73171;BME280;61381;50.118;19.962;2023-11-21T23:53:12;98588.88;;;0.46;100.00
73171;BME280;61381;50.118;19.962;2023-11-21T23:58:13;98594.25;;;0.58;100.00
